Argyle Township, Maine
Current Conditions -  °F | °C
As of 9:53 PM on Saturday 25 Oct 2014 (Local Time) from KBGR Reporting Station
Overcast Overcast  
Wind Chill:   Ceiling: 25000
Heat Index:   Visibility: 10mi
Dew Point:   Wind: 6mph
Humidity: 89%   Direction: 130°SE
Pressure: 29.48"   Gusts: NA
Location:  45.0236°N, 68.7394°W
Report Text: KBGR 260153Z 13005KT 10SM SCT080 OVC250 08/06 A2948 RMK AO2 SLP984 T00780061
Loading
Personal Weather Stations






























Interactive Weather Map
Tropical Storm Tracking
New forecast layout! Learn more

10-Day Weather Forecast

Advertisements
Track Severe Weather on mobile